Share

Marraquexe, Marrocos

09:11 AM WET em 23 de Abril de 2014 (GMT +0000)
Menara (GMMX) Elev 1529 ft | 31.61 °N, 8.04 °W | Change Station

Current weather conditions updated 11 minutes ago

Clear
Céu Limpo
64 °F
Aparente 64 °F
N
4
Vento Variável Vento de Norte
Nascer do Sol 5:55 AM
Pôr do Sol 7:06 PM
Lua Quarto minguante

Hoje prevê-se estar Mais Quente do que ontem.

Pressão 30.18 pol
Visibilidade -9999.0 milhas
Nuvens
Ponto de Orvalho 55 °F
Humidade 73%
Chuva 0.00 pol
Altura de Neve Não disponível
UV Não disponível
Pólen Não disponível
Qualidade do Ar Não disponível
Flu Activity Não disponível
METAR GMMX 230900Z 36003KT 300V070 CAVOK 18/13 Q1022 NOSIG

More Conditions Fewer Conditions

Pressão 30.18 pol
Visibilidade -9999.0 milhas
Nuvens
Ponto de Orvalho 55 °F
Humidade 73%
Chuva 0.00 pol
Altura de Neve Não disponível
UV Não disponível
Pólen Não disponível
Qualidade do Ar Não disponível
Flu Activity Não disponível
METAR GMMX 230900Z 36003KT 300V070 CAVOK 18/13 Q1022 NOSIG

More Conditions Fewer Conditions

10-Day Weather Forecast

Almanac

Astronomia

Apr. 23, 2014 Nascer Pôr
Hora atual 05:55 WET 19:06 WET
Crepúsculo civil 05:29 WET 19:31 WET
Crepúsculo náutico 04:59 WET 20:01 WET
Crepúsculo astronómico 04:28 WET 20:33 WET
Lua 01:53 WET 13:21 WET
Comprimento da luz visível 14h 02m
Duração do Dia
13h 11m
Tomorrow will be 1m 45s longer.
Quarto minguante, 38% of the Moon is Illuminated
Hoje
Quarto minguante
Abr 29
Nova
Mai 6
Quarto crescente
Mai 14
Lua cheia
Mai 21
Quarto minguante

Extremos de ontem

Altitude na localidade Altura mais baixa na localidade

Community

  • April Sunset
    April Sunset
  • Waiting..
    Waiting..
  • Sunset...
    Sunset...
  • Happy outdoor day
    Happy outdoor day
  • mystic afternoon....
    mystic afternoon....

WunderPhotos

Upload Photos

1,704,233 fotografias inseridas!

WunderBlogs® & News

By Dr. Jeff Masters
Director of Meteorology, Weather Underground
By Kari Strenfel
Meteorologist, Weather Underground
By Christopher C. Burt
Weather Historian, Weather Underground
April 23, 2014
April 22, 2014
April 22, 2014

Nearby

Temperaturas das Águas Costeiras

Local Temperatura
Não há estações a reportar dados

Actividade Sísmisca

Cidade Distância Mag. Hora & Data
Não há notícias de atividade sísmica recente perto de si.
Mínima magnitude apresentada é 2.5.

Estações Meteorológicas Próximas

Não há estações meteorológicas nesta área.

What do you think?

We're not finished. Please let us know what you like, what you don't like, and what you are still missing.